Terminal Aerodrome Forecast
Issued by NWS Grand Forks, ND

Home | Current Version | Previous Version | Graphics & Text | Print | Product List | Glossary On
Versions: 1 2 3 4 5 6 7 8 9 10 11 12 13 14 15 16
000
FTUS43 KFGF 261115 AAA
TAFGFK
TAF AMD
KGFK 261115Z 2611/2706 06009KT P6SM OVC040
      TEMPO 2612/2614 -RA OVC025
     FM261800 09014KT P6SM BKN050
     FM270500 09009KT P6SM BKN250=

USA.gov is the U.S. government's official web portal to all federal, state and local government web resources and services.